sensor_id;sensor_type;location;lat;lon;timestamp;P1;durP1;ratioP1;P2;durP2;ratioP2
63370;SDS011;49504;48.336;14.472;2023-01-23T00:02:01;5.13;;;3.50;;
63370;SDS011;49504;48.336;14.472;2023-01-23T00:07:02;4.93;;;3.42;;
63370;SDS011;49504;48.336;14.472;2023-01-23T00:12:04;5.55;;;3.45;;
63370;SDS011;49504;48.336;14.472;2023-01-23T00:17:15;5.18;;;3.30;;
63370;SDS011;49504;48.336;14.472;2023-01-23T00:22:16;4.40;;;2.95;;
63370;SDS011;49504;48.336;14.472;2023-01-23T00:27:17;6.38;;;3.53;;
63370;SDS011;49504;48.336;14.472;2023-01-23T00:32:20;4.78;;;3.38;;
63370;SDS011;49504;48.336;14.472;2023-01-23T00:37:21;5.32;;;3.60;;
63370;SDS011;49504;48.336;14.472;2023-01-23T00:42:23;5.28;;;3.60;;
63370;SDS011;49504;48.336;14.472;2023-01-23T00:47:25;5.40;;;3.72;;
63370;SDS011;49504;48.336;14.472;2023-01-23T00:52:26;5.35;;;3.25;;
63370;SDS011;49504;48.336;14.472;2023-01-23T00:57:27;4.90;;;3.08;;
63370;SDS011;49504;48.336;14.472;2023-01-23T01:05:04;5.78;;;3.55;;
63370;SDS011;49504;48.336;14.472;2023-01-23T01:10:06;5.13;;;3.40;;
63370;SDS011;49504;48.336;14.472;2023-01-23T01:15:11;4.65;;;2.97;;
63370;SDS011;49504;48.336;14.472;2023-01-23T01:20:14;4.80;;;3.00;;
63370;SDS011;49504;48.336;14.472;2023-01-23T01:25:16;5.10;;;3.45;;
63370;SDS011;49504;48.336;14.472;2023-01-23T01:30:17;4.60;;;3.13;;
63370;SDS011;49504;48.336;14.472;2023-01-23T01:35:22;4.68;;;3.13;;
63370;SDS011;49504;48.336;14.472;2023-01-23T01:40:25;5.35;;;3.58;;
63370;SDS011;49504;48.336;14.472;2023-01-23T01:51:18;5.38;;;3.42;;
63370;SDS011;49504;48.336;14.472;2023-01-23T01:56:26;5.03;;;3.38;;
63370;SDS011;49504;48.336;14.472;2023-01-23T02:01:29;5.55;;;3.58;;
63370;SDS011;49504;48.336;14.472;2023-01-23T02:07:29;5.53;;;3.55;;
63370;SDS011;49504;48.336;14.472;2023-01-23T02:12:34;5.57;;;4.05;;
63370;SDS011;49504;48.336;14.472;2023-01-23T02:17:36;4.72;;;3.00;;
63370;SDS011;49504;48.336;14.472;2023-01-23T02:22:40;5.53;;;3.40;;
63370;SDS011;49504;48.336;14.472;2023-01-23T02:27:51;5.28;;;3.90;;
63370;SDS011;49504;48.336;14.472;2023-01-23T02:32:52;6.00;;;3.80;;
63370;SDS011;49504;48.336;14.472;2023-01-23T02:37:54;5.15;;;3.35;;
63370;SDS011;49504;48.336;14.472;2023-01-23T02:43:01;5.43;;;3.47;;
63370;SDS011;49504;48.336;14.472;2023-01-23T02:48:04;4.93;;;3.15;;
63370;SDS011;49504;48.336;14.472;2023-01-23T02:53:06;4.88;;;3.65;;
63370;SDS011;49504;48.336;14.472;2023-01-23T02:58:08;4.72;;;3.25;;
63370;SDS011;49504;48.336;14.472;2023-01-23T03:03:09;5.47;;;3.80;;
63370;SDS011;49504;48.336;14.472;2023-01-23T03:08:12;5.25;;;3.40;;
63370;SDS011;49504;48.336;14.472;2023-01-23T03:13:14;5.43;;;3.63;;
63370;SDS011;49504;48.336;14.472;2023-01-23T03:21:15;5.40;;;3.83;;
63370;SDS011;49504;48.336;14.472;2023-01-23T03:26:50;5.28;;;3.45;;
63370;SDS011;49504;48.336;14.472;2023-01-23T03:31:53;5.07;;;3.25;;
63370;SDS011;49504;48.336;14.472;2023-01-23T03:36:54;4.78;;;3.40;;
63370;SDS011;49504;48.336;14.472;2023-01-23T03:41:59;4.80;;;3.33;;
63370;SDS011;49504;48.336;14.472;2023-01-23T03:47:03;5.10;;;3.42;;
63370;SDS011;49504;48.336;14.472;2023-01-23T03:56:03;5.70;;;3.78;;
63370;SDS011;49504;48.336;14.472;2023-01-23T04:01:06;5.40;;;3.50;;
63370;SDS011;49504;48.336;14.472;2023-01-23T04:06:11;4.90;;;3.40;;
63370;SDS011;49504;48.336;14.472;2023-01-23T04:11:14;5.32;;;3.22;;
63370;SDS011;49504;48.336;14.472;2023-01-23T04:16:15;4.72;;;3.40;;
63370;SDS011;49504;48.336;14.472;2023-01-23T04:21:16;5.70;;;4.00;;
63370;SDS011;49504;48.336;14.472;2023-01-23T04:26:19;5.15;;;3.58;;
63370;SDS011;49504;48.336;14.472;2023-01-23T04:32:41;5.53;;;3.95;;
63370;SDS011;49504;48.336;14.472;2023-01-23T04:37:43;5.70;;;3.85;;
63370;SDS011;49504;48.336;14.472;2023-01-23T04:42:44;5.57;;;3.63;;
63370;SDS011;49504;48.336;14.472;2023-01-23T04:48:03;4.88;;;3.22;;
63370;SDS011;49504;48.336;14.472;2023-01-23T04:53:08;5.22;;;3.83;;
63370;SDS011;49504;48.336;14.472;2023-01-23T04:58:09;5.70;;;4.25;;
63370;SDS011;49504;48.336;14.472;2023-01-23T05:03:12;5.50;;;3.92;;
63370;SDS011;49504;48.336;14.472;2023-01-23T05:08:17;6.05;;;4.28;;
63370;SDS011;49504;48.336;14.472;2023-01-23T05:13:28;5.22;;;3.83;;
63370;SDS011;49504;48.336;14.472;2023-01-23T05:18:30;5.75;;;3.80;;
63370;SDS011;49504;48.336;14.472;2023-01-23T05:23:32;6.28;;;3.97;;
63370;SDS011;49504;48.336;14.472;2023-01-23T05:28:34;6.63;;;3.85;;
63370;SDS011;49504;48.336;14.472;2023-01-23T05:33:36;5.85;;;3.92;;
63370;SDS011;49504;48.336;14.472;2023-01-23T05:38:38;6.63;;;4.43;;
63370;SDS011;49504;48.336;14.472;2023-01-23T05:43:41;7.95;;;4.80;;
63370;SDS011;49504;48.336;14.472;2023-01-23T05:49:05;6.47;;;4.28;;
63370;SDS011;49504;48.336;14.472;2023-01-23T05:54:06;8.43;;;4.43;;
63370;SDS011;49504;48.336;14.472;2023-01-23T05:59:09;6.85;;;4.32;;
63370;SDS011;49504;48.336;14.472;2023-01-23T06:04:19;6.85;;;4.55;;
63370;SDS011;49504;48.336;14.472;2023-01-23T06:12:48;6.93;;;5.00;;
63370;SDS011;49504;48.336;14.472;2023-01-23T06:17:49;8.13;;;5.25;;
63370;SDS011;49504;48.336;14.472;2023-01-23T06:22:50;8.30;;;5.07;;
63370;SDS011;49504;48.336;14.472;2023-01-23T06:27:53;7.03;;;4.78;;
63370;SDS011;49504;48.336;14.472;2023-01-23T06:32:54;7.03;;;4.78;;
63370;SDS011;49504;48.336;14.472;2023-01-23T06:40:57;8.80;;;5.30;;
63370;SDS011;49504;48.336;14.472;2023-01-23T06:47:27;7.03;;;4.70;;
63370;SDS011;49504;48.336;14.472;2023-01-23T06:52:32;7.13;;;4.88;;
63370;SDS011;49504;48.336;14.472;2023-01-23T06:57:34;6.05;;;4.20;;
63370;SDS011;49504;48.336;14.472;2023-01-23T07:02:37;7.43;;;4.65;;
63370;SDS011;49504;48.336;14.472;2023-01-23T07:07:39;8.15;;;5.10;;
63370;SDS011;49504;48.336;14.472;2023-01-23T07:12:43;6.90;;;4.53;;
63370;SDS011;49504;48.336;14.472;2023-01-23T07:17:46;7.18;;;4.63;;
63370;SDS011;49504;48.336;14.472;2023-01-23T07:22:48;6.28;;;4.20;;
63370;SDS011;49504;48.336;14.472;2023-01-23T07:27:50;6.28;;;4.60;;
63370;SDS011;49504;48.336;14.472;2023-01-23T07:32:52;7.22;;;4.72;;
63370;SDS011;49504;48.336;14.472;2023-01-23T07:37:54;6.63;;;4.70;;
63370;SDS011;49504;48.336;14.472;2023-01-23T07:42:56;6.32;;;4.30;;
63370;SDS011;49504;48.336;14.472;2023-01-23T07:51:21;6.28;;;4.30;;
63370;SDS011;49504;48.336;14.472;2023-01-23T07:56:22;7.15;;;4.65;;
63370;SDS011;49504;48.336;14.472;2023-01-23T08:01:23;7.03;;;4.57;;
63370;SDS011;49504;48.336;14.472;2023-01-23T08:06:25;6.57;;;4.47;;
63370;SDS011;49504;48.336;14.472;2023-01-23T08:11:26;7.40;;;4.55;;
63370;SDS011;49504;48.336;14.472;2023-01-23T08:16:27;8.07;;;4.25;;
63370;SDS011;49504;48.336;14.472;2023-01-23T08:21:30;6.65;;;4.38;;
63370;SDS011;49504;48.336;14.472;2023-01-23T08:27:02;6.53;;;4.47;;
63370;SDS011;49504;48.336;14.472;2023-01-23T08:32:03;6.28;;;4.28;;
63370;SDS011;49504;48.336;14.472;2023-01-23T08:37:05;6.10;;;4.30;;
63370;SDS011;49504;48.336;14.472;2023-01-23T08:42:07;7.30;;;4.80;;
63370;SDS011;49504;48.336;14.472;2023-01-23T08:47:08;6.60;;;4.60;;
63370;SDS011;49504;48.336;14.472;2023-01-23T08:56:35;6.93;;;4.55;;
63370;SDS011;49504;48.336;14.472;2023-01-23T09:01:36;6.53;;;4.40;;
63370;SDS011;49504;48.336;14.472;2023-01-23T09:06:37;6.10;;;4.15;;
63370;SDS011;49504;48.336;14.472;2023-01-23T09:11:40;6.18;;;4.80;;
63370;SDS011;49504;48.336;14.472;2023-01-23T09:16:41;7.32;;;4.50;;
63370;SDS011;49504;48.336;14.472;2023-01-23T09:21:42;6.28;;;4.43;;
63370;SDS011;49504;48.336;14.472;2023-01-23T09:28:21;6.65;;;4.30;;
63370;SDS011;49504;48.336;14.472;2023-01-23T09:33:22;7.97;;;5.60;;
63370;SDS011;49504;48.336;14.472;2023-01-23T09:38:23;7.63;;;5.32;;
63370;SDS011;49504;48.336;14.472;2023-01-23T09:43:27;8.98;;;6.07;;
63370;SDS011;49504;48.336;14.472;2023-01-23T09:50:39;8.55;;;6.20;;
63370;SDS011;49504;48.336;14.472;2023-01-23T09:55:55;7.28;;;4.80;;
63370;SDS011;49504;48.336;14.472;2023-01-23T10:03:16;7.68;;;5.40;;
63370;SDS011;49504;48.336;14.472;2023-01-23T10:08:20;7.60;;;5.60;;
63370;SDS011;49504;48.336;14.472;2023-01-23T10:13:33;8.10;;;6.13;;
63370;SDS011;49504;48.336;14.472;2023-01-23T10:18:59;7.07;;;5.13;;
63370;SDS011;49504;48.336;14.472;2023-01-23T10:24:13;7.50;;;5.32;;
63370;SDS011;49504;48.336;14.472;2023-01-23T10:29:31;7.68;;;5.53;;
63370;SDS011;49504;48.336;14.472;2023-01-23T10:34:39;7.75;;;5.82;;
63370;SDS011;49504;48.336;14.472;2023-01-23T10:43:02;7.38;;;5.07;;
63370;SDS011;49504;48.336;14.472;2023-01-23T10:48:04;7.13;;;5.20;;
63370;SDS011;49504;48.336;14.472;2023-01-23T10:54:25;7.55;;;5.32;;
63370;SDS011;49504;48.336;14.472;2023-01-23T10:59:29;8.55;;;5.65;;
63370;SDS011;49504;48.336;14.472;2023-01-23T11:04:34;8.82;;;5.78;;
63370;SDS011;49504;48.336;14.472;2023-01-23T11:09:47;8.93;;;5.68;;
63370;SDS011;49504;48.336;14.472;2023-01-23T11:15:10;9.05;;;6.32;;
63370;SDS011;49504;48.336;14.472;2023-01-23T11:20:22;10.77;;;6.60;;
63370;SDS011;49504;48.336;14.472;2023-01-23T11:25:29;10.32;;;6.72;;
63370;SDS011;49504;48.336;14.472;2023-01-23T11:30:34;8.20;;;5.50;;
63370;SDS011;49504;48.336;14.472;2023-01-23T11:35:49;9.90;;;6.93;;
63370;SDS011;49504;48.336;14.472;2023-01-23T11:41:01;10.15;;;7.30;;
63370;SDS011;49504;48.336;14.472;2023-01-23T11:46:09;11.13;;;7.82;;
63370;SDS011;49504;48.336;14.472;2023-01-23T11:51:41;12.82;;;8.93;;
63370;SDS011;49504;48.336;14.472;2023-01-23T11:58:28;13.88;;;7.90;;
63370;SDS011;49504;48.336;14.472;2023-01-23T12:09:32;11.15;;;7.50;;
63370;SDS011;49504;48.336;14.472;2023-01-23T12:14:50;11.73;;;7.55;;
63370;SDS011;49504;48.336;14.472;2023-01-23T12:25:28;11.13;;;7.18;;
63370;SDS011;49504;48.336;14.472;2023-01-23T12:36:21;11.00;;;7.03;;
63370;SDS011;49504;48.336;14.472;2023-01-23T12:41:40;11.73;;;7.28;;
63370;SDS011;49504;48.336;14.472;2023-01-23T12:46:50;12.13;;;7.32;;
63370;SDS011;49504;48.336;14.472;2023-01-23T12:51:56;9.63;;;6.53;;
63370;SDS011;49504;48.336;14.472;2023-01-23T13:01:51;10.50;;;6.72;;
63370;SDS011;49504;48.336;14.472;2023-01-23T13:08:38;11.68;;;7.18;;
63370;SDS011;49504;48.336;14.472;2023-01-23T13:13:45;9.55;;;6.78;;
63370;SDS011;49504;48.336;14.472;2023-01-23T13:18:51;10.00;;;6.35;;
63370;SDS011;49504;48.336;14.472;2023-01-23T13:23:55;9.55;;;6.38;;
63370;SDS011;49504;48.336;14.472;2023-01-23T13:34:48;9.05;;;6.53;;
63370;SDS011;49504;48.336;14.472;2023-01-23T13:39:57;8.90;;;6.43;;
63370;SDS011;49504;48.336;14.472;2023-01-23T13:50:35;8.57;;;5.93;;
63370;SDS011;49504;48.336;14.472;2023-01-23T13:55:43;9.20;;;6.30;;
63370;SDS011;49504;48.336;14.472;2023-01-23T14:00:47;8.93;;;5.68;;
63370;SDS011;49504;48.336;14.472;2023-01-23T14:06:04;8.75;;;6.22;;
63370;SDS011;49504;48.336;14.472;2023-01-23T14:11:12;9.40;;;6.70;;
63370;SDS011;49504;48.336;14.472;2023-01-23T14:16:14;9.63;;;6.15;;
63370;SDS011;49504;48.336;14.472;2023-01-23T14:21:17;9.68;;;6.45;;
63370;SDS011;49504;48.336;14.472;2023-01-23T14:28:31;7.57;;;5.47;;
63370;SDS011;49504;48.336;14.472;2023-01-23T14:33:38;7.88;;;5.43;;
63370;SDS011;49504;48.336;14.472;2023-01-23T14:38:41;9.80;;;5.80;;
63370;SDS011;49504;48.336;14.472;2023-01-23T14:43:45;7.00;;;5.25;;
63370;SDS011;49504;48.336;14.472;2023-01-23T14:48:48;8.20;;;5.72;;
63370;SDS011;49504;48.336;14.472;2023-01-23T14:53:55;7.70;;;5.28;;
63370;SDS011;49504;48.336;14.472;2023-01-23T14:59:02;8.80;;;5.28;;
63370;SDS011;49504;48.336;14.472;2023-01-23T15:04:06;7.60;;;5.55;;
63370;SDS011;49504;48.336;14.472;2023-01-23T15:09:21;7.80;;;5.13;;
63370;SDS011;49504;48.336;14.472;2023-01-23T15:14:30;7.40;;;5.30;;
63370;SDS011;49504;48.336;14.472;2023-01-23T15:19:37;7.70;;;5.72;;
63370;SDS011;49504;48.336;14.472;2023-01-23T15:24:39;8.55;;;5.57;;
63370;SDS011;49504;48.336;14.472;2023-01-23T15:29:41;7.43;;;5.35;;
63370;SDS011;49504;48.336;14.472;2023-01-23T15:36:29;6.60;;;4.70;;
63370;SDS011;49504;48.336;14.472;2023-01-23T15:41:38;7.88;;;5.45;;
63370;SDS011;49504;48.336;14.472;2023-01-23T15:46:43;7.13;;;5.05;;
63370;SDS011;49504;48.336;14.472;2023-01-23T15:51:46;8.35;;;5.05;;
63370;SDS011;49504;48.336;14.472;2023-01-23T15:56:48;7.00;;;4.65;;
63370;SDS011;49504;48.336;14.472;2023-01-23T16:06:20;7.68;;;5.43;;
63370;SDS011;49504;48.336;14.472;2023-01-23T16:11:23;6.60;;;4.75;;
63370;SDS011;49504;48.336;14.472;2023-01-23T16:16:24;7.25;;;4.80;;
63370;SDS011;49504;48.336;14.472;2023-01-23T16:21:29;8.52;;;5.00;;
63370;SDS011;49504;48.336;14.472;2023-01-23T16:26:30;6.90;;;4.20;;
63370;SDS011;49504;48.336;14.472;2023-01-23T16:31:31;7.53;;;4.82;;
63370;SDS011;49504;48.336;14.472;2023-01-23T16:36:33;8.02;;;5.38;;
63370;SDS011;49504;48.336;14.472;2023-01-23T16:41:34;6.70;;;5.28;;
63370;SDS011;49504;48.336;14.472;2023-01-23T16:46:36;7.50;;;5.60;;
63370;SDS011;49504;48.336;14.472;2023-01-23T16:51:38;7.35;;;4.90;;
63370;SDS011;49504;48.336;14.472;2023-01-23T16:56:41;6.60;;;4.70;;
63370;SDS011;49504;48.336;14.472;2023-01-23T17:01:44;6.65;;;4.90;;
63370;SDS011;49504;48.336;14.472;2023-01-23T17:06:49;7.63;;;5.65;;
63370;SDS011;49504;48.336;14.472;2023-01-23T17:11:51;7.35;;;5.13;;
63370;SDS011;49504;48.336;14.472;2023-01-23T17:16:55;6.50;;;4.95;;
63370;SDS011;49504;48.336;14.472;2023-01-23T17:29:34;7.38;;;5.00;;
63370;SDS011;49504;48.336;14.472;2023-01-23T17:34:35;7.13;;;4.85;;
63370;SDS011;49504;48.336;14.472;2023-01-23T17:39:37;7.88;;;4.88;;
63370;SDS011;49504;48.336;14.472;2023-01-23T17:48:35;6.13;;;4.47;;
63370;SDS011;49504;48.336;14.472;2023-01-23T17:53:38;7.18;;;4.53;;
63370;SDS011;49504;48.336;14.472;2023-01-23T17:58:39;6.70;;;4.93;;
63370;SDS011;49504;48.336;14.472;2023-01-23T18:03:42;7.03;;;4.50;;
63370;SDS011;49504;48.336;14.472;2023-01-23T18:17:38;6.82;;;5.38;;
63370;SDS011;49504;48.336;14.472;2023-01-23T18:22:46;6.68;;;4.60;;
63370;SDS011;49504;48.336;14.472;2023-01-23T18:27:49;8.00;;;5.65;;
63370;SDS011;49504;48.336;14.472;2023-01-23T18:33:04;6.32;;;4.50;;
63370;SDS011;49504;48.336;14.472;2023-01-23T18:38:19;6.53;;;4.47;;
63370;SDS011;49504;48.336;14.472;2023-01-23T18:43:33;6.53;;;4.68;;
63370;SDS011;49504;48.336;14.472;2023-01-23T18:48:37;7.93;;;4.95;;
63370;SDS011;49504;48.336;14.472;2023-01-23T18:53:44;9.43;;;5.72;;
63370;SDS011;49504;48.336;14.472;2023-01-23T18:59:00;6.82;;;4.65;;
63370;SDS011;49504;48.336;14.472;2023-01-23T19:04:13;8.07;;;5.40;;
63370;SDS011;49504;48.336;14.472;2023-01-23T19:09:27;7.90;;;5.90;;
63370;SDS011;49504;48.336;14.472;2023-01-23T19:14:58;7.85;;;5.70;;
63370;SDS011;49504;48.336;14.472;2023-01-23T19:25:00;8.32;;;5.85;;
63370;SDS011;49504;48.336;14.472;2023-01-23T19:30:02;8.48;;;4.88;;
63370;SDS011;49504;48.336;14.472;2023-01-23T19:35:04;8.90;;;6.13;;
63370;SDS011;49504;48.336;14.472;2023-01-23T19:40:09;8.40;;;5.80;;
63370;SDS011;49504;48.336;14.472;2023-01-23T19:45:13;7.18;;;5.40;;
63370;SDS011;49504;48.336;14.472;2023-01-23T19:50:16;7.50;;;5.32;;
63370;SDS011;49504;48.336;14.472;2023-01-23T19:55:21;7.80;;;5.38;;
63370;SDS011;49504;48.336;14.472;2023-01-23T20:00:26;6.88;;;5.35;;
63370;SDS011;49504;48.336;14.472;2023-01-23T20:05:29;7.35;;;5.30;;
63370;SDS011;49504;48.336;14.472;2023-01-23T20:10:32;7.13;;;5.07;;
63370;SDS011;49504;48.336;14.472;2023-01-23T20:15:33;7.95;;;5.68;;
63370;SDS011;49504;48.336;14.472;2023-01-23T20:20:34;7.05;;;5.45;;
63370;SDS011;49504;48.336;14.472;2023-01-23T20:25:37;8.30;;;5.43;;
63370;SDS011;49504;48.336;14.472;2023-01-23T20:30:38;7.13;;;5.38;;
63370;SDS011;49504;48.336;14.472;2023-01-23T20:35:39;6.97;;;4.88;;
63370;SDS011;49504;48.336;14.472;2023-01-23T20:40:41;8.02;;;6.07;;
63370;SDS011;49504;48.336;14.472;2023-01-23T20:45:46;6.95;;;5.65;;
63370;SDS011;49504;48.336;14.472;2023-01-23T20:50:50;7.45;;;5.53;;
63370;SDS011;49504;48.336;14.472;2023-01-23T20:55:54;7.78;;;5.78;;
63370;SDS011;49504;48.336;14.472;2023-01-23T21:00:57;7.32;;;5.20;;
63370;SDS011;49504;48.336;14.472;2023-01-23T21:05:59;7.85;;;5.72;;
63370;SDS011;49504;48.336;14.472;2023-01-23T21:11:04;7.63;;;5.90;;
63370;SDS011;49504;48.336;14.472;2023-01-23T21:16:06;8.15;;;5.53;;
63370;SDS011;49504;48.336;14.472;2023-01-23T21:21:11;6.63;;;5.00;;
63370;SDS011;49504;48.336;14.472;2023-01-23T21:26:16;6.88;;;5.07;;
63370;SDS011;49504;48.336;14.472;2023-01-23T21:31:20;8.13;;;5.53;;
63370;SDS011;49504;48.336;14.472;2023-01-23T21:36:24;7.18;;;5.28;;
63370;SDS011;49504;48.336;14.472;2023-01-23T21:41:27;7.15;;;5.30;;
63370;SDS011;49504;48.336;14.472;2023-01-23T21:46:28;6.82;;;5.13;;
63370;SDS011;49504;48.336;14.472;2023-01-23T21:54:40;6.80;;;5.03;;
63370;SDS011;49504;48.336;14.472;2023-01-23T21:59:41;6.40;;;5.05;;
63370;SDS011;49504;48.336;14.472;2023-01-23T22:04:42;7.53;;;5.88;;
63370;SDS011;49504;48.336;14.472;2023-01-23T22:09:44;7.25;;;5.22;;
63370;SDS011;49504;48.336;14.472;2023-01-23T22:14:45;7.32;;;5.47;;
63370;SDS011;49504;48.336;14.472;2023-01-23T22:19:46;7.55;;;5.65;;
63370;SDS011;49504;48.336;14.472;2023-01-23T22:24:49;7.30;;;5.22;;
63370;SDS011;49504;48.336;14.472;2023-01-23T22:31:34;5.72;;;4.22;;
63370;SDS011;49504;48.336;14.472;2023-01-23T22:36:35;6.55;;;5.00;;
63370;SDS011;49504;48.336;14.472;2023-01-23T22:41:36;7.72;;;5.45;;
63370;SDS011;49504;48.336;14.472;2023-01-23T22:46:39;7.25;;;5.20;;
63370;SDS011;49504;48.336;14.472;2023-01-23T22:51:40;6.80;;;4.82;;
63370;SDS011;49504;48.336;14.472;2023-01-23T22:56:41;8.18;;;5.82;;
63370;SDS011;49504;48.336;14.472;2023-01-23T23:01:44;6.40;;;4.70;;
63370;SDS011;49504;48.336;14.472;2023-01-23T23:06:45;9.32;;;5.78;;
63370;SDS011;49504;48.336;14.472;2023-01-23T23:11:46;6.85;;;5.28;;
63370;SDS011;49504;48.336;14.472;2023-01-23T23:16:48;6.30;;;4.60;;
63370;SDS011;49504;48.336;14.472;2023-01-23T23:21:49;6.70;;;5.07;;
63370;SDS011;49504;48.336;14.472;2023-01-23T23:26:50;6.53;;;4.80;;
63370;SDS011;49504;48.336;14.472;2023-01-23T23:31:53;6.38;;;4.60;;
63370;SDS011;49504;48.336;14.472;2023-01-23T23:36:54;6.65;;;4.72;;
63370;SDS011;49504;48.336;14.472;2023-01-23T23:41:55;6.50;;;4.93;;
63370;SDS011;49504;48.336;14.472;2023-01-23T23:46:58;6.13;;;4.40;;
63370;SDS011;49504;48.336;14.472;2023-01-23T23:51:59;6.75;;;4.90;;
63370;SDS011;49504;48.336;14.472;2023-01-23T23:57:00;6.85;;;5.22;;
